createdAt,value
2022-10-01T00:00:29.043Z,48.50
2022-10-01T00:10:31.547Z,48.50
2022-10-01T00:20:33.316Z,48.50
2022-10-01T00:30:40.127Z,48.20
2022-10-01T00:40:42.254Z,48.40
2022-10-01T00:50:44.991Z,48.20
2022-10-01T01:00:47.505Z,48.60
2022-10-01T01:11:11.186Z,47.90
2022-10-01T01:21:28.388Z,47.90
2022-10-01T01:31:37.524Z,47.90
2022-10-01T01:41:49.921Z,47.90
2022-10-01T01:51:59.944Z,47.80
2022-10-01T02:02:02.280Z,47.70
2022-10-01T02:12:22.790Z,47.60
2022-10-01T02:22:43.842Z,47.50
2022-10-01T02:32:49.894Z,47.60
2022-10-01T02:42:55.147Z,47.70
2022-10-01T02:53:06.977Z,47.70
2022-10-01T03:03:08.792Z,47.70
2022-10-01T03:13:10.609Z,47.80
2022-10-01T03:23:12.356Z,47.70
2022-10-01T03:33:14.167Z,47.80
2022-10-01T03:43:15.918Z,48.00
2022-10-01T03:53:18.422Z,47.90
2022-10-01T04:03:20.210Z,48.00
2022-10-01T04:13:21.975Z,48.00
2022-10-01T04:23:24.563Z,48.00
2022-10-01T04:33:26.305Z,48.00
2022-10-01T04:43:28.068Z,48.00
2022-10-01T04:53:29.878Z,48.10
2022-10-01T05:03:31.670Z,48.40
2022-10-01T05:13:33.434Z,48.20
2022-10-01T05:23:35.255Z,48.20
2022-10-01T05:33:37.036Z,48.00
2022-10-01T05:43:38.836Z,48.00
2022-10-01T05:53:40.581Z,48.20
2022-10-01T06:03:42.905Z,48.30
2022-10-01T06:13:46.743Z,47.90
2022-10-01T06:23:50.355Z,47.80
2022-10-01T06:33:52.218Z,47.80
2022-10-01T06:43:53.970Z,47.60
2022-10-01T06:53:57.762Z,47.60
2022-10-01T07:03:59.604Z,47.40
2022-10-01T07:14:01.476Z,47.50
2022-10-01T07:24:03.416Z,47.40
2022-10-01T07:34:05.172Z,47.50
2022-10-01T07:44:07.107Z,47.40
2022-10-01T07:54:09.260Z,47.60
2022-10-01T08:04:30.985Z,47.50
2022-10-01T08:14:32.755Z,47.70
2022-10-01T08:24:37.447Z,47.50
2022-10-01T08:34:39.301Z,47.60
2022-10-01T08:44:45.381Z,47.70
2022-10-01T08:55:00.465Z,47.70
2022-10-01T09:05:05.598Z,47.50
2022-10-01T09:15:32.525Z,47.80
2022-10-01T09:25:37.348Z,47.90
2022-10-01T09:36:01.445Z,48.30
2022-10-01T09:46:06.924Z,48.30
2022-10-01T09:56:16.346Z,48.30
2022-10-01T10:06:23.949Z,48.30
2022-10-01T10:16:26.429Z,48.30
2022-10-01T10:26:28.643Z,48.30
2022-10-01T10:36:36.557Z,48.30
2022-10-01T10:46:44.047Z,48.40
2022-10-01T10:57:02.792Z,48.30
2022-10-01T11:07:05.663Z,48.30
2022-10-01T11:17:49.349Z,48.30
2022-10-01T11:28:26.146Z,48.30
2022-10-01T11:38:39.932Z,48.30
2022-10-01T11:48:51.089Z,48.30
2022-10-01T11:58:56.756Z,48.30
2022-10-01T12:09:07.634Z,48.30
2022-10-01T12:19:26.718Z,48.30
2022-10-01T12:29:45.141Z,48.30
2022-10-01T12:40:30.923Z,48.30
2022-10-01T12:50:52.200Z,48.30
2022-10-01T13:01:17.718Z,49.00
2022-10-01T13:11:25.444Z,48.40
2022-10-01T13:21:46.216Z,48.30
2022-10-01T13:31:58.701Z,48.40
2022-10-01T13:42:00.528Z,48.40
2022-10-01T13:52:03.051Z,48.40
2022-10-01T14:02:35.231Z,48.40
2022-10-01T14:13:00.083Z,48.60
2022-10-01T14:23:16.016Z,48.90
2022-10-01T14:33:42.071Z,49.00
2022-10-01T14:43:43.865Z,49.10
2022-10-01T14:53:45.707Z,48.90
2022-10-01T15:03:48.612Z,49.10
2022-10-01T15:13:52.818Z,48.90
2022-10-01T15:23:54.831Z,49.20
2022-10-01T15:33:56.928Z,49.20
2022-10-01T15:44:03.961Z,49.20
2022-10-01T15:54:08.974Z,49.20
2022-10-01T16:04:14.237Z,49.20
2022-10-01T16:14:27.952Z,49.50
2022-10-01T16:24:40.839Z,49.40
2022-10-01T16:34:42.704Z,49.30
2022-10-01T16:44:44.572Z,49.30
2022-10-01T16:54:47.363Z,49.40
2022-10-01T17:04:49.143Z,49.50
2022-10-01T17:14:51.165Z,49.50
2022-10-01T17:24:52.934Z,49.60
2022-10-01T17:34:54.766Z,49.80
2022-10-01T17:44:56.545Z,49.80
2022-10-01T17:54:58.649Z,49.80
2022-10-01T18:05:03.865Z,49.80
2022-10-01T18:15:06.221Z,49.80
2022-10-01T18:25:08.307Z,49.80
2022-10-01T18:35:32.328Z,49.70
2022-10-01T18:45:51.454Z,49.80
2022-10-01T18:55:59.466Z,49.70
2022-10-01T19:06:22.108Z,49.80
2022-10-01T19:17:04.470Z,49.60
2022-10-01T19:27:27.285Z,49.60
2022-10-01T19:37:36.773Z,49.40
2022-10-01T19:47:45.789Z,49.20
2022-10-01T19:57:48.383Z,49.10
2022-10-01T20:08:12.731Z,49.20
2022-10-01T20:18:28.321Z,49.10
2022-10-01T20:28:37.678Z,49.00
2022-10-01T20:38:57.453Z,49.10
2022-10-01T20:49:06.754Z,49.10
2022-10-01T20:59:13.652Z,49.20
2022-10-01T21:09:34.022Z,49.20
2022-10-01T21:20:07.523Z,49.20
2022-10-01T21:30:15.780Z,49.40
2022-10-01T21:40:35.630Z,49.30
2022-10-01T21:50:49.990Z,49.40
2022-10-01T22:01:13.161Z,49.40
2022-10-01T22:11:21.084Z,49.30
2022-10-01T22:21:35.329Z,49.20
2022-10-01T22:31:38.763Z,49.20
2022-10-01T22:41:51.882Z,49.20
2022-10-01T22:52:13.890Z,49.30
2022-10-01T23:02:28.811Z,49.40
2022-10-01T23:12:55.422Z,49.00
2022-10-01T23:23:31.461Z,49.10
2022-10-01T23:34:10.215Z,48.90
2022-10-01T23:44:28.394Z,48.90
2022-10-01T23:54:33.007Z,48.70
